Terminal Aerodrome Forecast
Issued by NWS Burlington, VT

Home | Current Version | Previous Version | Text Only | Print | Product List | Glossary On
Versions: 1 2 3 4 5 6 7 8 9 10 11 12 13 14
297
FTUS41 KBTV 261739
TAFBTV
TAF
KBTV 261739Z 2618/2718 12004KT P6SM BKN040
     FM262000 13005KT P6SM BKN060
     FM271500 17007KT P6SM FEW080=

USA.gov is the U.S. government's official web portal to all federal, state and local government web resources and services.